KCOT/COT METAR and TAF weather

Enter ICAO airport designator
Station Type Date Time Source
KCOT METAR 2022/12/04 05:19 UTC NOAA

KCOT 040519Z AUTO 07006KT 10SM BKN014 OVC025 16/13 A3032 RMK AO2 RAE0455 P0000 T01560133


Station Type Date Time Source
KCOT Decoded METAR 2022/12/04 05:19 UTC NOAA

COTULLA-LASALLE COUNTY AIRPORT , TX, United States (KCOT) 28-27N 099-13W 140M
Dec 04, 2022 - 12:19 AM EST / 2022.12.04 0519 UTC
Wind: from the ENE (070 degrees) at 7 MPH (6 KT):0
Visibility: 10 mile(s):0
Sky conditions: overcast
Precipitation last hour: A trace
Temperature: 60.1 F (15.6 C)
Dew Point: 55.9 F (13.3 C)
Relative Humidity: 86%
Pressure (altimeter): 30.32 in. Hg (1026 hPa)
ob: KCOT 040519Z AUTO 07006KT 10SM BKN014 OVC025 16/13 A3032 RMK AO2 RAE0455 P0000 T01560133
cycle: 5

Station Type Date Time Source
KCOT TAF 2022/12/04 06:22 UTC NOAA

TAF KCOT 040522Z 0406/0506 05007KT P6SM OVC015
TEMPO 0406/0409 5SM -SHRA BR OVC010
FM041000 06006KT P6SM OVC009
FM041800 16004KT P6SM OVC015
FM050400 10006KT P6SM OVC009

Example: see airport list